Time;durP1;ratioP1;P1;durP2;ratioP2;P2;SDS_P1;SDS_P2;PMS_P1;PMS_P2;Temp;Humidity;BMP_temperature;BMP_pressure;BME280_temperature;BME280_humidity;BME280_pressure;Samples;Min_cycle;Max_cycle;Signal;HPM_P1;HPM_P2
2023/01/13 00:00:34;;;;;;;32.10;8.33;;;9.20;99.90;;;;;;4990896;28;20226;-87
2023/01/13 00:03:02;;;;;;;41.67;7.30;;;9.20;99.90;;;;;;4982319;28;20522;-82
2023/01/13 00:05:29;;;;;;;33.87;8.10;;;9.20;99.90;;;;;;4970613;28;20238;-81
2023/01/13 00:07:55;;;;;;;40.47;9.47;;;9.20;99.90;;;;;;4970311;28;20209;-78
2023/01/13 00:10:22;;;;;;;32.40;8.47;;;9.20;99.90;;;;;;4978650;28;20259;-78
2023/01/13 00:12:50;;;;;;;40.30;8.50;;;9.20;99.90;;;;;;4986608;28;20207;-79
2023/01/13 00:15:17;;;;;;;43.30;8.43;;;9.20;99.90;;;;;;4979919;28;20518;-79
2023/01/13 00:17:43;;;;;;;33.97;7.23;;;9.20;99.90;;;;;;4967359;28;20211;-78
2023/01/13 00:20:12;;;;;;;34.13;8.33;;;9.20;99.90;;;;;;4966623;28;20197;-79
2023/01/13 00:22:39;;;;;;;35.57;7.13;;;9.20;99.90;;;;;;4966414;28;20597;-79
2023/01/13 00:25:07;;;;;;;36.27;8.37;;;9.20;99.90;;;;;;4966741;28;21025;-77
2023/01/13 00:27:34;;;;;;;36.20;7.23;;;9.20;99.90;;;;;;4966273;28;20208;-77
2023/01/13 00:30:01;;;;;;;37.33;8.53;;;9.20;99.90;;;;;;4966154;28;20246;-78
2023/01/13 00:32:28;;;;;;;41.63;9.17;;;9.10;99.90;;;;;;4965953;28;20939;-77
2023/01/13 00:34:55;;;;;;;40.90;10.07;;;9.00;99.90;;;;;;4966302;28;20960;-77
2023/01/13 00:37:23;;;;;;;39.73;8.53;;;9.10;99.90;;;;;;4966268;28;20216;-77
2023/01/13 00:39:51;;;;;;;40.90;9.57;;;9.10;99.90;;;;;;4965899;28;20251;-78
2023/01/13 00:45:02;;;;;;;37.77;8.93;;;9.10;99.90;;;;;;4966161;28;20360;-78
2023/01/13 00:47:30;;;;;;;35.87;7.73;;;9.10;99.90;;;;;;4965201;28;20295;-77
2023/01/13 00:49:57;;;;;;;36.73;8.77;;;9.10;99.90;;;;;;4966200;28;20927;-77
2023/01/13 00:52:25;;;;;;;42.90;8.17;;;9.20;99.90;;;;;;4981161;28;20222;-79
2023/01/13 00:54:52;;;;;;;42.53;8.47;;;9.10;99.90;;;;;;4984066;28;20219;-78
2023/01/13 00:57:19;;;;;;;43.37;8.23;;;9.20;99.90;;;;;;4972486;28;20217;-77
2023/01/13 00:59:46;;;;;;;44.97;9.93;;;9.20;99.90;;;;;;4966423;28;20200;-77
2023/01/13 01:02:13;;;;;;;31.47;7.67;;;9.20;99.90;;;;;;4965814;28;20574;-78
2023/01/13 01:04:40;;;;;;;40.13;8.47;;;9.20;99.90;;;;;;4965681;28;20224;-78
2023/01/13 01:07:07;;;;;;;36.90;9.27;;;9.20;99.90;;;;;;4965992;28;20270;-77
2023/01/13 01:09:37;;;;;;;35.87;9.00;;;9.20;99.90;;;;;;4965814;28;20204;-80
2023/01/13 01:12:05;;;;;;;41.57;9.23;;;9.20;99.90;;;;;;4965770;28;20200;-80
2023/01/13 01:14:32;;;;;;;34.60;8.20;;;9.20;99.90;;;;;;4966045;28;20668;-78
2023/01/13 01:16:58;;;;;;;41.33;10.23;;;9.20;99.90;;;;;;4966566;28;20236;-78
2023/01/13 01:19:25;;;;;;;36.83;9.00;;;9.20;99.90;;;;;;4966823;28;20588;-77
2023/01/13 01:21:53;;;;;;;45.70;10.53;;;9.20;99.90;;;;;;4966261;28;20582;-81
2023/01/13 01:24:20;;;;;;;44.53;9.27;;;9.20;99.90;;;;;;4981930;28;20658;-77
2023/01/13 01:26:48;;;;;;;43.03;10.40;;;9.20;99.90;;;;;;4984812;28;20309;-78
2023/01/13 01:29:15;;;;;;;39.23;8.37;;;9.20;99.90;;;;;;4985411;28;20208;-77
2023/01/13 01:31:43;;;;;;;43.53;9.23;;;9.10;99.90;;;;;;4967731;28;20919;-77
2023/01/13 01:34:10;;;;;;;34.63;8.10;;;9.10;99.90;;;;;;4967172;28;20227;-78
2023/01/13 01:36:37;;;;;;;38.50;8.80;;;9.10;99.90;;;;;;4965669;28;20211;-77
2023/01/13 01:39:05;;;;;;;42.37;8.07;;;9.10;99.90;;;;;;4965917;28;20247;-77
2023/01/13 01:41:34;;;;;;;43.93;10.17;;;9.10;99.90;;;;;;4965783;28;20207;-75
2023/01/13 01:44:07;;;;;;;40.37;9.40;;;9.10;99.90;;;;;;4966637;28;20211;-79
2023/01/13 01:46:36;;;;;;;37.83;8.07;;;9.00;99.90;;;;;;4965779;28;20234;-80
2023/01/13 01:49:12;;;;;;;41.23;9.70;;;9.00;99.90;;;;;;4965347;28;20209;-79
2023/01/13 01:51:45;;;;;;;37.73;9.30;;;9.00;99.90;;;;;;4965133;28;20204;-78
2023/01/13 01:54:16;;;;;;;40.53;9.03;;;9.00;99.90;;;;;;4967201;28;20275;-76
2023/01/13 01:56:45;;;;;;;42.53;9.00;;;9.00;99.90;;;;;;4965440;28;20207;-77
2023/01/13 01:59:14;;;;;;;38.40;8.07;;;9.00;99.90;;;;;;4966718;28;20205;-79
2023/01/13 02:01:42;;;;;;;44.60;9.60;;;9.00;99.90;;;;;;4965497;28;20214;-77
2023/01/13 02:04:14;;;;;;;27.93;8.50;;;9.00;99.90;;;;;;4965773;28;20228;-76
2023/01/13 02:06:42;;;;;;;42.27;8.70;;;9.00;99.90;;;;;;4965372;28;20202;-76
2023/01/13 02:09:10;;;;;;;35.57;8.73;;;9.00;99.90;;;;;;4966160;28;20205;-77
2023/01/13 02:14:25;;;;;;;55.27;10.33;;;8.90;99.90;;;;;;4968194;28;20330;-89
2023/01/13 02:17:03;;;;;;;27.63;8.03;;;8.90;99.90;;;;;;4972719;28;20300;-85
2023/01/13 02:20:15;;;;;;;39.50;9.07;;;8.90;99.90;;;;;;4971979;28;20307;-85
2023/01/13 02:26:19;;;;;;;47.17;9.63;;;8.90;99.90;;;;;;4938925;28;20239;-88
2023/01/13 02:31:49;;;;;;;36.07;8.00;;;8.90;99.90;;;;;;4981054;28;20248;-77
2023/01/13 02:34:23;;;;;;;41.67;8.07;;;8.90;99.90;;;;;;4965721;28;20204;-77
2023/01/13 02:36:54;;;;;;;38.60;8.30;;;9.00;99.90;;;;;;4965979;28;20212;-77
2023/01/13 02:39:27;;;;;;;37.60;8.03;;;9.00;99.90;;;;;;4965439;28;20244;-76
2023/01/13 02:44:50;;;;;;;40.97;8.33;;;9.10;99.90;;;;;;4973621;28;20251;-83
2023/01/13 02:47:22;;;;;;;46.73;9.10;;;9.10;99.90;;;;;;4965100;28;20231;-78
2023/01/13 02:49:52;;;;;;;47.70;8.63;;;9.00;99.90;;;;;;4968996;28;20621;-86
2023/01/13 02:52:25;;;;;;;40.13;8.80;;;9.00;99.90;;;;;;4966954;28;20501;-78
2023/01/13 02:54:57;;;;;;;33.33;7.20;;;9.00;99.90;;;;;;4965778;28;20692;-77
2023/01/13 02:57:25;;;;;;;40.07;9.03;;;9.00;99.90;;;;;;4966028;28;20287;-82
2023/01/13 02:59:55;;;;;;;38.90;7.17;;;9.10;99.90;;;;;;4967662;28;20259;-79
2023/01/13 03:02:24;;;;;;;35.30;7.53;;;9.00;99.90;;;;;;4981528;28;20672;-75
2023/01/13 03:04:54;;;;;;;34.17;7.00;;;9.00;99.90;;;;;;4969698;28;20231;-78
2023/01/13 03:07:42;;;;;;;42.60;7.20;;;9.00;99.90;;;;;;4970114;28;20291;-79
2023/01/13 03:10:17;;;;;;;33.00;7.07;;;9.10;99.90;;;;;;4969528;28;20216;-76
2023/01/13 03:12:55;;;;;;;25.93;6.37;;;9.10;99.90;;;;;;4969227;28;20601;-77
2023/01/13 03:15:35;;;;;;;35.53;7.53;;;9.10;99.90;;;;;;4968906;28;20207;-79
2023/01/13 03:18:14;;;;;;;32.30;6.77;;;9.10;99.90;;;;;;4988136;28;20688;-79
2023/01/13 03:20:49;;;;;;;30.47;6.83;;;9.10;99.90;;;;;;4987970;28;20235;-82
2023/01/13 03:23:21;;;;;;;30.27;6.60;;;9.10;99.90;;;;;;4972889;28;20192;-83
2023/01/13 03:25:56;;;;;;;26.57;6.37;;;9.10;99.90;;;;;;4974785;28;20217;-85
2023/01/13 03:28:28;;;;;;;41.03;7.13;;;9.00;99.90;;;;;;4974550;28;20204;-80
2023/01/13 03:30:59;;;;;;;32.07;7.80;;;9.10;99.90;;;;;;4971728;28;20205;-77
2023/01/13 03:33:33;;;;;;;27.37;6.67;;;9.10;99.90;;;;;;4970300;28;20313;-81
2023/01/13 03:36:05;;;;;;;28.47;6.33;;;9.10;99.90;;;;;;4972718;28;20204;-79
2023/01/13 03:38:36;;;;;;;31.70;6.27;;;9.00;99.90;;;;;;4990123;28;20597;-87
2023/01/13 03:41:07;;;;;;;33.83;6.17;;;9.00;99.90;;;;;;4979626;28;20204;-88
2023/01/13 03:46:28;;;;;;;29.60;6.00;;;9.00;99.90;;;;;;4971086;28;20692;-89
2023/01/13 03:48:59;;;;;;;25.53;5.63;;;9.00;99.90;;;;;;4972555;28;20205;-89
2023/01/13 03:51:30;;;;;;;30.13;6.90;;;9.00;99.90;;;;;;4973300;28;20215;-85
2023/01/13 03:54:00;;;;;;;24.30;7.50;;;9.00;99.90;;;;;;4972649;28;20430;-89
2023/01/13 03:56:30;;;;;;;45.23;7.67;;;9.10;99.90;;;;;;4971882;28;20211;-89
2023/01/13 03:58:59;;;;;;;32.30;8.13;;;9.00;99.90;;;;;;4967945;28;20519;-81
2023/01/13 04:01:29;;;;;;;30.20;6.10;;;9.00;99.90;;;;;;4983038;28;20620;-82
2023/01/13 04:04:03;;;;;;;26.10;5.80;;;9.10;99.90;;;;;;4986181;28;20202;-77
2023/01/13 04:06:40;;;;;;;24.07;5.37;;;9.00;99.90;;;;;;4967342;28;20228;-81
2023/01/13 04:09:14;;;;;;;28.13;6.53;;;9.00;99.90;;;;;;4959645;28;20594;-77
2023/01/13 04:11:46;;;;;;;35.50;7.37;;;9.10;99.90;;;;;;4971161;28;20196;-86
2023/01/13 04:14:16;;;;;;;27.17;6.07;;;9.10;99.90;;;;;;4991647;28;20204;-84
2023/01/13 04:16:43;;;;;;;31.30;6.23;;;9.10;99.90;;;;;;4990801;28;20286;-82
2023/01/13 04:19:11;;;;;;;31.33;5.50;;;9.10;99.90;;;;;;4989574;28;20236;-84
2023/01/13 04:21:38;;;;;;;29.50;5.90;;;9.20;99.90;;;;;;4989438;28;20208;-82
2023/01/13 04:24:05;;;;;;;26.97;6.20;;;9.20;99.90;;;;;;4974353;28;20838;-76
2023/01/13 04:26:32;;;;;;;30.57;7.00;;;9.20;99.90;;;;;;4969425;28;20623;-84
2023/01/13 04:28:59;;;;;;;35.70;7.83;;;9.20;99.90;;;;;;4970826;28;20238;-78
2023/01/13 04:31:26;;;;;;;26.17;6.67;;;9.20;99.90;;;;;;4969329;28;20611;-81
2023/01/13 04:33:53;;;;;;;21.93;6.30;;;9.20;99.90;;;;;;4967795;28;20216;-81
2023/01/13 04:36:23;;;;;;;30.03;6.23;;;9.20;99.90;;;;;;4967615;28;20285;-88
2023/01/13 04:38:51;;;;;;;33.00;6.40;;;9.20;99.90;;;;;;4967397;28;20244;-83
2023/01/13 04:41:17;;;;;;;30.83;6.30;;;9.10;99.90;;;;;;4969473;28;20224;-76
2023/01/13 04:43:44;;;;;;;30.87;7.13;;;9.20;99.90;;;;;;4973324;28;20239;-78
2023/01/13 04:46:11;;;;;;;25.57;5.33;;;9.10;99.90;;;;;;4987454;28;20227;-80
2023/01/13 04:48:38;;;;;;;31.90;5.20;;;9.10;99.90;;;;;;4988375;28;20301;-80
2023/01/13 04:51:05;;;;;;;25.90;6.07;;;9.10;99.90;;;;;;4987316;28;20208;-76
2023/01/13 04:53:33;;;;;;;21.30;5.17;;;9.10;99.90;;;;;;4985648;28;20216;-79
2023/01/13 04:56:00;;;;;;;27.13;5.40;;;9.00;99.90;;;;;;4987976;28;20210;-82
2023/01/13 04:58:27;;;;;;;29.03;5.03;;;9.00;99.90;;;;;;4986086;28;20327;-78
2023/01/13 05:00:54;;;;;;;22.40;5.93;;;9.00;99.90;;;;;;4986505;28;20695;-78
2023/01/13 05:03:23;;;;;;;27.30;5.27;;;9.00;99.90;;;;;;4988184;28;20200;-88
2023/01/13 05:05:51;;;;;;;27.27;5.90;;;8.90;99.90;;;;;;4969146;28;20718;-76
2023/01/13 05:08:18;;;;;;;27.67;6.10;;;8.90;99.90;;;;;;4967353;28;20300;-77
2023/01/13 05:10:46;;;;;;;19.20;4.97;;;8.90;99.90;;;;;;4967559;28;20299;-76
2023/01/13 05:18:44;;;;;;;25.97;5.07;;;8.90;99.90;;;;;;4966204;28;20278;-79
2023/01/13 05:25:20;;;;;;;29.23;5.93;;;8.90;99.90;;;;;;4965564;28;20201;-84
2023/01/13 05:26:45;;;;;;;28.67;5.57;;;8.90;99.90;;;;;;4964380;28;20282;-76
2023/01/13 05:29:12;;;;;;;31.97;5.60;;;8.90;99.90;;;;;;4964440;28;20205;-76
2023/01/13 05:31:38;;;;;;;29.07;5.93;;;8.90;99.90;;;;;;4965310;28;20227;-78
2023/01/13 05:34:05;;;;;;;27.83;6.17;;;8.90;99.90;;;;;;4966545;28;20209;-76
2023/01/13 05:36:32;;;;;;;34.13;7.07;;;9.00;99.90;;;;;;4965874;28;20240;-77
2023/01/13 05:38:59;;;;;;;29.67;6.03;;;9.10;99.90;;;;;;4966840;28;20238;-84
2023/01/13 05:44:12;;;;;;;28.77;5.30;;;9.10;99.90;;;;;;4968915;28;20196;-77
2023/01/13 05:46:40;;;;;;;31.20;7.10;;;9.20;99.90;;;;;;4970263;28;20611;-77
2023/01/13 05:49:07;;;;;;;32.33;6.43;;;9.20;99.90;;;;;;4984170;28;20199;-77
2023/01/13 05:51:34;;;;;;;25.13;6.63;;;9.20;99.90;;;;;;4985545;28;20204;-77
2023/01/13 05:54:01;;;;;;;28.47;6.17;;;9.20;99.90;;;;;;4985394;28;20207;-80
2023/01/13 05:56:28;;;;;;;29.43;6.03;;;9.20;99.90;;;;;;4974956;28;20331;-81
2023/01/13 05:58:55;;;;;;;35.23;8.70;;;9.20;99.90;;;;;;4965437;28;20216;-76
2023/01/13 06:01:23;;;;;;;32.03;6.80;;;9.20;99.90;;;;;;4965354;28;20204;-79
2023/01/13 06:03:50;;;;;;;34.93;6.30;;;9.20;99.90;;;;;;4964841;28;20220;-77
2023/01/13 06:06:16;;;;;;;35.40;7.57;;;9.30;99.90;;;;;;4967441;28;20311;-79
2023/01/13 06:08:43;;;;;;;30.53;6.03;;;9.30;99.90;;;;;;4968416;28;20200;-77
2023/01/13 06:11:10;;;;;;;34.17;7.40;;;9.30;99.90;;;;;;4965294;28;20215;-76
2023/01/13 06:13:37;;;;;;;35.47;7.40;;;9.30;99.90;;;;;;4965551;28;20193;-77
2023/01/13 06:16:04;;;;;;;34.13;8.57;;;9.30;99.90;;;;;;4966119;28;20663;-76
2023/01/13 06:18:33;;;;;;;29.47;5.23;;;9.30;99.90;;;;;;4964995;28;20225;-75
2023/01/13 06:21:00;;;;;;;29.13;6.83;;;9.40;99.90;;;;;;4965451;28;20213;-78
2023/01/13 06:23:27;;;;;;;29.43;7.70;;;9.40;99.90;;;;;;4966359;28;20556;-76
2023/01/13 06:26:02;;;;;;;42.80;7.00;;;9.40;99.90;;;;;;4964779;28;20288;-76
2023/01/13 06:28:29;;;;;;;27.97;7.30;;;9.40;99.90;;;;;;4965479;28;20254;-81
2023/01/13 06:30:59;;;;;;;43.20;9.37;;;9.40;99.90;;;;;;4964947;28;20199;-81
2023/01/13 06:33:31;;;;;;;37.63;7.10;;;9.50;99.90;;;;;;4977694;28;20294;-78
2023/01/13 06:36:04;;;;;;;41.33;7.80;;;9.50;99.90;;;;;;4986406;28;20200;-78
2023/01/13 06:38:37;;;;;;;35.27;6.73;;;9.50;99.90;;;;;;4976306;28;20865;-77
2023/01/13 06:41:04;;;;;;;35.37;8.07;;;9.40;99.90;;;;;;4965254;28;20209;-83
2023/01/13 06:43:30;;;;;;;36.40;8.03;;;9.40;99.90;;;;;;4965688;28;20212;-78
2023/01/13 06:45:57;;;;;;;33.53;7.47;;;9.40;99.90;;;;;;4965418;28;20402;-77
2023/01/13 06:48:27;;;;;;;49.63;9.07;;;9.30;99.90;;;;;;4965745;28;20323;-77
2023/01/13 06:50:54;;;;;;;35.87;8.13;;;9.30;99.90;;;;;;4966694;28;20625;-79
2023/01/13 06:53:22;;;;;;;27.63;7.00;;;9.30;99.90;;;;;;4965901;28;20215;-76
2023/01/13 06:55:49;;;;;;;35.60;7.50;;;9.30;99.90;;;;;;4964289;28;20209;-76
2023/01/13 06:58:16;;;;;;;36.10;7.43;;;9.30;99.90;;;;;;4964457;28;20204;-77
2023/01/13 07:00:43;;;;;;;33.67;7.93;;;9.20;99.90;;;;;;4964158;28;20640;-79
2023/01/13 07:03:12;;;;;;;30.87;7.53;;;9.20;99.90;;;;;;4964011;28;20208;-83
2023/01/13 07:05:40;;;;;;;36.03;7.40;;;9.20;99.90;;;;;;4964995;28;20224;-77
2023/01/13 07:08:07;;;;;;;24.67;6.53;;;9.20;99.90;;;;;;4963720;28;20215;-76
2023/01/13 07:10:36;;;;;;;29.93;7.20;;;9.20;99.90;;;;;;4964302;28;20220;-76
2023/01/13 07:15:54;;;;;;;35.20;8.10;;;9.20;99.90;;;;;;4964415;28;20517;-76
2023/01/13 07:18:21;;;;;;;27.10;6.53;;;9.30;99.90;;;;;;4963801;28;20235;-77
2023/01/13 07:20:53;;;;;;;31.40;8.07;;;9.30;99.90;;;;;;4964472;28;20207;-77
2023/01/13 07:23:19;;;;;;;34.40;7.23;;;9.30;99.90;;;;;;4964839;28;20255;-77
2023/01/13 07:25:49;;;;;;;38.67;7.47;;;9.30;99.90;;;;;;4964266;28;20696;-77
2023/01/13 07:28:16;;;;;;;32.80;8.33;;;9.30;99.90;;;;;;4963652;28;20205;-77
2023/01/13 07:30:43;;;;;;;38.03;8.73;;;9.30;99.90;;;;;;4963496;28;20192;-76
2023/01/13 07:33:09;;;;;;;37.40;8.17;;;9.20;99.90;;;;;;4964343;28;20307;-78
2023/01/13 07:35:36;;;;;;;32.67;7.60;;;9.30;99.90;;;;;;4963875;28;20300;-77
2023/01/13 07:38:03;;;;;;;31.73;7.60;;;9.30;99.90;;;;;;4956424;28;20896;-77
2023/01/13 07:40:30;;;;;;;36.13;7.43;;;9.30;99.90;;;;;;4964221;28;20234;-76
2023/01/13 07:45:43;;;;;;;27.40;7.67;;;9.30;99.90;;;;;;4966325;28;20319;-78
2023/01/13 07:48:10;;;;;;;40.17;8.53;;;9.40;99.90;;;;;;4967618;28;20259;-80
2023/01/13 07:50:37;;;;;;;32.33;7.80;;;9.40;99.90;;;;;;4967592;28;20834;-77
2023/01/13 07:53:04;;;;;;;26.30;7.23;;;9.40;99.90;;;;;;4968399;28;20205;-77
2023/01/13 07:55:31;;;;;;;28.77;6.60;;;9.40;99.90;;;;;;4967878;28;20208;-77
2023/01/13 07:57:59;;;;;;;29.90;8.53;;;9.40;99.90;;;;;;4967335;28;20348;-75
2023/01/13 08:00:27;;;;;;;36.43;7.57;;;9.40;99.90;;;;;;4968272;28;20207;-77
2023/01/13 08:02:54;;;;;;;37.67;8.53;;;9.40;99.90;;;;;;4967316;28;20227;-78
2023/01/13 08:05:20;;;;;;;29.27;7.13;;;9.40;99.90;;;;;;4968229;28;20232;-77
2023/01/13 08:08:29;;;;;;;28.20;7.07;;;9.40;99.90;;;;;;4932371;28;20596;-77
2023/01/13 08:10:59;;;;;;;30.43;6.33;;;9.50;99.90;;;;;;4989037;28;20303;-79
2023/01/13 08:13:27;;;;;;;34.20;7.87;;;9.50;99.90;;;;;;4994073;28;20291;-80
2023/01/13 08:16:00;;;;;;;26.63;6.63;;;9.50;99.90;;;;;;4990686;28;20212;-78
2023/01/13 08:18:27;;;;;;;24.00;6.53;;;9.60;99.90;;;;;;4997070;28;20597;-86
2023/01/13 08:20:54;;;;;;;31.80;8.63;;;9.60;99.90;;;;;;4988174;28;20208;-82
2023/01/13 08:23:22;;;;;;;28.97;6.50;;;9.60;99.90;;;;;;5003321;28;20619;-85
2023/01/13 08:25:50;;;;;;;31.30;7.60;;;9.50;99.90;;;;;;5002524;28;20587;-82
2023/01/13 08:28:17;;;;;;;30.17;7.63;;;9.60;99.90;;;;;;4995626;28;20192;-81
2023/01/13 08:30:46;;;;;;;29.47;7.13;;;9.60;99.90;;;;;;4975160;28;20295;-75
2023/01/13 08:33:13;;;;;;;33.77;8.43;;;9.60;99.90;;;;;;4967339;28;20307;-81
2023/01/13 08:35:42;;;;;;;29.73;7.07;;;9.60;99.90;;;;;;4985461;28;20208;-77
2023/01/13 08:38:09;;;;;;;27.53;7.10;;;9.60;99.90;;;;;;4986192;28;20208;-77
2023/01/13 08:40:36;;;;;;;31.93;7.37;;;9.60;99.90;;;;;;4970296;28;20232;-76
2023/01/13 08:43:03;;;;;;;37.93;8.60;;;9.60;99.90;;;;;;4966770;28;20293;-77
2023/01/13 08:45:30;;;;;;;27.97;8.00;;;9.60;99.90;;;;;;4965302;28;20215;-75
2023/01/13 08:47:58;;;;;;;33.73;7.20;;;9.60;99.90;;;;;;4966652;28;20230;-76
2023/01/13 08:50:25;;;;;;;28.93;7.17;;;9.60;99.90;;;;;;4967228;28;20298;-79
2023/01/13 08:52:52;;;;;;;26.73;6.60;;;9.70;99.90;;;;;;4984880;28;20302;-77
2023/01/13 08:55:19;;;;;;;25.37;5.83;;;9.70;99.90;;;;;;4985829;28;20214;-77
2023/01/13 08:57:46;;;;;;;20.77;5.97;;;9.70;99.90;;;;;;4965409;28;20213;-77
2023/01/13 09:00:15;;;;;;;28.83;6.03;;;9.70;99.90;;;;;;4965649;28;20802;-77
2023/01/13 09:02:43;;;;;;;19.60;4.57;;;9.70;99.90;;;;;;4965838;28;20379;-77
2023/01/13 09:05:11;;;;;;;26.07;6.33;;;9.70;99.90;;;;;;4965673;28;20218;-79
2023/01/13 09:07:39;;;;;;;28.43;6.93;;;9.70;99.90;;;;;;4965356;28;20228;-77
2023/01/13 09:10:07;;;;;;;28.30;6.13;;;9.70;99.90;;;;;;4958816;28;20213;-77
2023/01/13 09:15:20;;;;;;;25.80;5.57;;;9.80;99.90;;;;;;4965433;28;20199;-77
2023/01/13 09:17:47;;;;;;;30.77;6.73;;;9.70;99.90;;;;;;4965189;28;20259;-75
2023/01/13 09:20:16;;;;;;;24.73;6.27;;;9.70;99.90;;;;;;4966152;28;20204;-76
2023/01/13 09:22:43;;;;;;;22.83;5.13;;;9.70;99.90;;;;;;4965599;28;20219;-76
2023/01/13 09:25:11;;;;;;;30.63;6.70;;;9.70;99.90;;;;;;4965110;28;20519;-77
2023/01/13 09:27:38;;;;;;;21.57;5.83;;;9.70;99.90;;;;;;4964038;28;20343;-78
2023/01/13 09:30:06;;;;;;;24.33;5.40;;;9.70;99.90;;;;;;4966278;28;20532;-76
2023/01/13 09:32:33;;;;;;;27.80;5.33;;;9.70;99.90;;;;;;4965540;28;20292;-75
2023/01/13 09:34:59;;;;;;;35.57;6.17;;;9.70;99.90;;;;;;4965255;28;20299;-76
2023/01/13 09:37:28;;;;;;;24.17;5.37;;;9.70;99.90;;;;;;4966249;28;20208;-78
2023/01/13 09:39:55;;;;;;;24.90;8.03;;;9.80;99.90;;;;;;4966220;28;20656;-77
2023/01/13 09:45:19;;;;;;;22.17;4.93;;;9.80;99.90;;;;;;4966303;28;20628;-78
2023/01/13 09:47:55;;;;;;;27.97;5.37;;;9.80;99.90;;;;;;4965531;28;20596;-76
2023/01/13 09:50:33;;;;;;;25.97;6.33;;;9.80;99.90;;;;;;4966830;28;20306;-77
2023/01/13 09:53:01;;;;;;;24.73;6.47;;;9.80;99.90;;;;;;4966154;28;20255;-78
2023/01/13 09:55:33;;;;;;;29.87;6.83;;;9.70;99.90;;;;;;4965150;28;20217;-80
2023/01/13 09:58:02;;;;;;;26.83;6.33;;;9.80;99.90;;;;;;4966347;28;20189;-78
2023/01/13 10:00:35;;;;;;;26.57;6.33;;;9.80;99.90;;;;;;4965626;28;20351;-77
2023/01/13 10:03:20;;;;;;;24.33;6.10;;;9.80;99.90;;;;;;4957163;28;20223;-76
2023/01/13 10:05:55;;;;;;;25.73;6.43;;;9.80;99.90;;;;;;4963684;28;20541;-77
2023/01/13 10:08:26;;;;;;;18.40;4.43;;;9.80;99.90;;;;;;4964468;28;20663;-76
2023/01/13 10:10:56;;;;;;;22.20;4.30;;;9.80;99.90;;;;;;4964446;28;20204;-76
2023/01/13 10:13:24;;;;;;;22.23;4.87;;;9.90;99.90;;;;;;4965566;28;20215;-76
2023/01/13 10:16:23;;;;;;;19.77;4.50;;;9.90;99.90;;;;;;4964033;28;20843;-76
2023/01/13 10:19:01;;;;;;;20.80;4.33;;;9.90;99.90;;;;;;4964583;28;20708;-76
2023/01/13 10:21:50;;;;;;;19.37;4.27;;;9.90;99.90;;;;;;4964516;28;20191;-77
2023/01/13 10:24:25;;;;;;;22.37;3.90;;;10.00;99.90;;;;;;4983177;28;20211;-76
2023/01/13 10:27:02;;;;;;;20.10;4.70;;;10.00;99.90;;;;;;4982972;28;20226;-75
2023/01/13 10:29:31;;;;;;;21.07;4.30;;;10.00;99.90;;;;;;4985271;28;20214;-77
2023/01/13 10:31:59;;;;;;;20.83;4.67;;;10.00;99.90;;;;;;4969502;28;20204;-78
2023/01/13 10:34:28;;;;;;;22.27;5.60;;;10.00;99.90;;;;;;4964827;28;20291;-77
2023/01/13 10:36:59;;;;;;;16.20;4.77;;;9.90;99.90;;;;;;4963204;28;20657;-77
2023/01/13 10:39:29;;;;;;;28.63;7.03;;;10.00;99.90;;;;;;4980158;28;20235;-76
2023/01/13 10:42:06;;;;;;;19.23;5.07;;;9.90;99.90;;;;;;4986188;28;20215;-77
2023/01/13 10:44:47;;;;;;;17.87;4.07;;;10.00;99.90;;;;;;4997107;28;20280;-78
2023/01/13 10:47:22;;;;;;;17.07;4.53;;;10.00;99.90;;;;;;4990696;28;20230;-77
2023/01/13 10:50:01;;;;;;;20.43;6.40;;;10.00;99.90;;;;;;4997666;28;20215;-77
2023/01/13 10:52:31;;;;;;;28.77;5.40;;;10.10;99.90;;;;;;4987823;28;20203;-77
2023/01/13 10:54:59;;;;;;;25.03;5.70;;;10.00;99.90;;;;;;4983988;28;20213;-77
2023/01/13 10:57:28;;;;;;;21.77;5.03;;;10.00;99.90;;;;;;4993331;28;20214;-77
2023/01/13 10:59:55;;;;;;;19.33;5.33;;;10.10;99.90;;;;;;4990975;28;20235;-77
2023/01/13 11:02:28;;;;;;;19.27;4.23;;;10.10;99.90;;;;;;4992335;28;20296;-77
2023/01/13 11:05:18;;;;;;;16.30;4.00;;;10.10;99.90;;;;;;4985410;28;20211;-78
2023/01/13 11:07:51;;;;;;;13.03;3.67;;;10.10;99.90;;;;;;4984003;28;20309;-77
2023/01/13 11:10:22;;;;;;;20.77;4.50;;;10.10;99.90;;;;;;5001118;28;20262;-80
2023/01/13 11:12:58;;;;;;;21.07;4.23;;;10.20;99.90;;;;;;4988084;28;20322;-76
2023/01/13 11:15:34;;;;;;;13.23;3.93;;;10.20;99.90;;;;;;4983624;28;20844;-80
2023/01/13 11:18:03;;;;;;;18.23;4.27;;;10.30;99.90;;;;;;4983480;28;20196;-78
2023/01/13 11:20:35;;;;;;;17.67;3.93;;;10.30;99.90;;;;;;4984263;28;20211;-77
2023/01/13 11:23:11;;;;;;;25.83;5.20;;;10.30;99.90;;;;;;4983893;28;20215;-76
2023/01/13 11:25:43;;;;;;;12.87;3.87;;;10.30;99.90;;;;;;4979096;28;20206;-81
2023/01/13 11:28:31;;;;;;;17.23;4.33;;;10.30;99.90;;;;;;4993824;28;20293;-77
2023/01/13 11:31:05;;;;;;;17.20;4.50;;;10.30;99.90;;;;;;4980908;28;20904;-78
2023/01/13 11:33:40;;;;;;;17.40;3.93;;;10.30;99.90;;;;;;4975349;28;20993;-79
2023/01/13 11:36:13;;;;;;;19.23;4.73;;;10.30;99.90;;;;;;4979581;28;20517;-79
2023/01/13 11:38:51;;;;;;;15.67;4.00;;;10.30;99.90;;;;;;4980748;28;20218;-78
2023/01/13 11:41:31;;;;;;;14.00;4.27;;;10.40;99.90;;;;;;4977492;28;21036;-77
2023/01/13 11:44:08;;;;;;;14.73;3.67;;;10.40;99.90;;;;;;4967590;28;20189;-76
2023/01/13 11:46:35;;;;;;;18.97;3.67;;;10.40;99.90;;;;;;4967930;28;20196;-79
2023/01/13 11:49:04;;;;;;;22.47;3.97;;;10.30;99.90;;;;;;4972650;28;20232;-76
2023/01/13 11:51:36;;;;;;;14.20;3.90;;;10.30;99.90;;;;;;4987751;28;20208;-79
2023/01/13 11:54:29;;;;;;;14.20;3.70;;;10.40;99.90;;;;;;4973001;28;20205;-78
2023/01/13 11:57:29;;;;;;;23.00;4.37;;;10.30;99.90;;;;;;4965751;28;20204;-77
2023/01/13 12:00:31;;;;;;;16.77;4.47;;;10.40;99.90;;;;;;4971987;28;20866;-78
2023/01/13 12:03:19;;;;;;;20.07;3.90;;;10.40;99.90;;;;;;4989685;28;20212;-78
2023/01/13 12:06:01;;;;;;;13.80;4.70;;;10.40;99.90;;;;;;4990081;28;20578;-81
2023/01/13 12:08:45;;;;;;;22.63;5.47;;;10.40;99.90;;;;;;4981408;28;21028;-79
2023/01/13 12:11:18;;;;;;;18.50;4.13;;;10.40;99.90;;;;;;4979846;28;20200;-81
2023/01/13 12:13:54;;;;;;;15.53;3.70;;;10.40;99.90;;;;;;4985798;28;20224;-81
2023/01/13 12:16:23;;;;;;;24.00;4.20;;;10.40;99.90;;;;;;4966143;28;20212;-80
2023/01/13 12:19:12;;;;;;;20.90;3.97;;;10.40;99.90;;;;;;4979627;28;20231;-86
2023/01/13 12:21:47;;;;;;;16.50;4.10;;;10.40;99.90;;;;;;4972201;28;20223;-84
2023/01/13 12:24:22;;;;;;;11.57;3.67;;;10.40;99.90;;;;;;4990823;28;20199;-82
2023/01/13 12:26:55;;;;;;;12.27;3.60;;;10.40;99.90;;;;;;4990697;28;20202;-82
2023/01/13 12:29:28;;;;;;;15.67;3.67;;;10.30;99.90;;;;;;4987473;28;20303;-83
2023/01/13 12:31:55;;;;;;;12.50;4.03;;;10.30;99.90;;;;;;4986286;28;20688;-81
2023/01/13 12:34:34;;;;;;;16.60;3.73;;;10.30;99.90;;;;;;4983448;28;20192;-80
2023/01/13 12:37:10;;;;;;;16.77;3.33;;;10.40;99.90;;;;;;4985113;28;20196;-78
2023/01/13 12:39:50;;;;;;;17.57;4.17;;;10.40;99.90;;;;;;4975512;28;20518;-79
2023/01/13 12:45:19;;;;;;;16.33;4.47;;;10.40;99.90;;;;;;4984270;28;20199;-83
2023/01/13 12:47:47;;;;;;;15.00;3.70;;;10.40;99.90;;;;;;4982263;28;20578;-81
2023/01/13 12:50:43;;;;;;;21.23;3.83;;;10.40;99.90;;;;;;4972603;28;20193;-82
2023/01/13 12:53:35;;;;;;;13.80;4.03;;;10.40;99.90;;;;;;4981587;28;20215;-80
2023/01/13 12:56:43;;;;;;;15.37;4.17;;;10.40;99.90;;;;;;4984475;28;20220;-84
2023/01/13 12:59:48;;;;;;;13.37;3.13;;;10.40;99.90;;;;;;4969211;28;20196;-88
2023/01/13 13:02:30;;;;;;;13.80;3.37;;;10.40;99.90;;;;;;4944806;29;20299;-86
2023/01/13 13:04:59;;;;;;;15.03;3.57;;;10.40;99.90;;;;;;4968487;28;20315;-82
2023/01/13 13:07:40;;;;;;;22.47;4.40;;;10.40;99.90;;;;;;4994051;28;20212;-80
2023/01/13 13:10:17;;;;;;;17.17;4.60;;;10.40;99.90;;;;;;4985338;28;20909;-77
2023/01/13 13:15:42;;;;;;;19.20;3.57;;;10.40;99.90;;;;;;4980810;28;20258;-77
2023/01/13 13:18:29;;;;;;;15.90;3.20;;;10.40;99.90;;;;;;4977626;28;20239;-77
2023/01/13 13:21:05;;;;;;;24.57;4.23;;;10.40;99.90;;;;;;4971992;28;20867;-79
2023/01/13 13:23:55;;;;;;;16.20;3.70;;;10.50;99.90;;;;;;4984187;28;20698;-80
2023/01/13 13:26:41;;;;;;;14.77;3.53;;;10.50;99.90;;;;;;4978041;28;20188;-76
2023/01/13 13:29:33;;;;;;;13.63;4.00;;;10.50;99.90;;;;;;4976615;28;20846;-78
2023/01/13 13:32:28;;;;;;;15.37;3.37;;;10.50;99.90;;;;;;4978286;28;20524;-79
2023/01/13 13:35:28;;;;;;;13.93;3.87;;;10.50;99.90;;;;;;4965216;28;20224;-77
2023/01/13 13:46:47;;;;;;;15.13;3.30;;;10.50;99.90;;;;;;5008551;28;20290;-81
2023/01/13 13:49:14;;;;;;;18.93;4.43;;;10.50;99.90;;;;;;4977801;28;20241;-82
2023/01/13 13:51:47;;;;;;;18.80;3.93;;;10.40;99.90;;;;;;4972263;28;20200;-85
2023/01/13 13:54:18;;;;;;;20.70;4.63;;;10.40;99.90;;;;;;4990004;28;20585;-87
2023/01/13 13:56:49;;;;;;;21.30;5.17;;;10.40;99.90;;;;;;4973542;28;20203;-88
2023/01/13 13:59:20;;;;;;;21.60;4.60;;;10.40;99.90;;;;;;4987914;28;20282;-84